createdAt,value
2022-11-06T00:00:48.760Z,22.40
2022-11-06T00:03:20.595Z,20.90
2022-11-06T00:06:10.291Z,19.30
2022-11-06T00:08:43.071Z,20.50
2022-11-06T00:11:18.524Z,20.60
2022-11-06T00:13:52.463Z,19.70
2022-11-06T00:16:24.483Z,21.40
2022-11-06T00:18:57.240Z,23.40
2022-11-06T00:21:30.911Z,21.70
2022-11-06T00:24:03.954Z,22.70
2022-11-06T00:26:36.573Z,20.70
2022-11-06T00:29:09.666Z,22.30
2022-11-06T00:31:41.525Z,24.30
2022-11-06T00:34:13.439Z,20.90
2022-11-06T00:36:45.198Z,22.60
2022-11-06T00:39:17.049Z,20.80
2022-11-06T00:41:48.794Z,22.00
2022-11-06T00:44:20.698Z,22.50
2022-11-06T00:46:52.524Z,20.90
2022-11-06T00:49:24.304Z,20.70
2022-11-06T00:51:56.146Z,22.00
2022-11-06T00:54:27.934Z,21.10
2022-11-06T00:56:59.986Z,22.70
2022-11-06T00:59:31.978Z,22.20
2022-11-06T01:02:03.797Z,22.40
2022-11-06T01:04:35.685Z,21.10
2022-11-06T01:07:07.439Z,20.50
2022-11-06T01:09:39.887Z,22.20
2022-11-06T01:12:13.749Z,22.30
2022-11-06T01:14:46.550Z,19.50
2022-11-06T01:17:18.458Z,20.50
2022-11-06T01:19:50.200Z,21.30
2022-11-06T01:22:22.031Z,19.70
2022-11-06T01:24:53.988Z,18.30
2022-11-06T01:27:26.974Z,20.30
2022-11-06T01:29:59.308Z,17.90
2022-11-06T01:32:31.846Z,19.30
2022-11-06T01:35:03.566Z,18.70
2022-11-06T01:37:35.617Z,18.40
2022-11-06T01:40:08.562Z,16.50
2022-11-06T01:42:40.302Z,20.30
2022-11-06T01:45:27.364Z,20.00
2022-11-06T01:47:59.881Z,19.00
2022-11-06T01:50:32.081Z,21.90
2022-11-06T01:53:03.959Z,20.50
2022-11-06T01:55:40.401Z,21.60
2022-11-06T01:58:16.155Z,20.00
2022-11-06T02:00:49.829Z,19.10
2022-11-06T02:03:21.909Z,23.60
2022-11-06T02:05:54.279Z,22.00
2022-11-06T02:08:26.881Z,21.20
2022-11-06T02:10:58.948Z,21.50
2022-11-06T02:13:38.818Z,20.30
2022-11-06T02:16:19.067Z,24.50
2022-11-06T02:19:03.234Z,19.30
2022-11-06T02:22:08.020Z,20.80
2022-11-06T02:24:56.421Z,22.30
2022-11-06T02:27:30.850Z,25.10
2022-11-06T02:30:06.854Z,23.70
2022-11-06T02:32:43.104Z,22.80
2022-11-06T02:35:23.269Z,21.90
2022-11-06T02:38:00.203Z,22.50
2022-11-06T02:40:35.265Z,24.60
2022-11-06T02:43:09.627Z,22.80
2022-11-06T02:45:48.773Z,21.40
2022-11-06T02:48:24.940Z,25.70
2022-11-06T02:50:59.920Z,21.80
2022-11-06T02:53:34.122Z,21.50
2022-11-06T02:56:10.237Z,24.90
2022-11-06T02:58:49.049Z,21.50
2022-11-06T03:01:28.355Z,20.70
2022-11-06T03:04:05.628Z,25.70
2022-11-06T03:06:43.885Z,19.60
2022-11-06T03:09:20.409Z,19.20
2022-11-06T03:11:57.462Z,21.60
2022-11-06T03:14:35.160Z,20.60
2022-11-06T03:17:15.452Z,21.60
2022-11-06T03:19:53.358Z,18.60
2022-11-06T03:22:31.635Z,19.30
2022-11-06T03:25:14.862Z,19.10
2022-11-06T03:27:57.442Z,19.30
2022-11-06T03:30:30.143Z,19.80
2022-11-06T03:33:10.490Z,18.30
2022-11-06T03:35:45.693Z,17.00
2022-11-06T03:38:23.845Z,17.30
2022-11-06T03:40:59.545Z,18.10
2022-11-06T03:43:36.666Z,19.10
2022-11-06T03:46:13.351Z,16.30
2022-11-06T03:48:49.075Z,17.40
2022-11-06T03:51:25.027Z,18.30
2022-11-06T03:54:01.376Z,17.90
2022-11-06T03:56:38.215Z,19.30
2022-11-06T03:59:12.342Z,20.10
2022-11-06T04:01:47.952Z,19.30
2022-11-06T04:04:24.645Z,16.40
2022-11-06T04:07:01.699Z,14.80
2022-11-06T04:09:56.810Z,15.40
2022-11-06T04:13:00.183Z,16.30
2022-11-06T04:15:35.068Z,15.30
2022-11-06T04:18:15.710Z,15.70
2022-11-06T04:21:12.812Z,16.60
2022-11-06T04:24:12.988Z,17.20
2022-11-06T04:26:53.567Z,14.00
2022-11-06T04:29:42.016Z,16.10
2022-11-06T04:32:19.630Z,15.70
2022-11-06T04:35:00.704Z,16.40
2022-11-06T04:37:40.740Z,17.10
2022-11-06T04:40:18.474Z,13.40
2022-11-06T04:42:55.864Z,15.00
2022-11-06T04:45:32.611Z,16.60
2022-11-06T04:48:06.711Z,14.80
2022-11-06T04:50:44.417Z,15.00
2022-11-06T04:53:18.722Z,14.10
2022-11-06T04:55:56.199Z,14.40
2022-11-06T04:58:28.236Z,13.90
2022-11-06T05:01:00.215Z,14.80
2022-11-06T05:03:32.560Z,14.90
2022-11-06T05:06:04.566Z,14.80
2022-11-06T05:08:36.314Z,13.70
2022-11-06T05:11:08.288Z,12.80
2022-11-06T05:13:40.215Z,15.20
2022-11-06T05:16:11.976Z,16.30
2022-11-06T05:18:43.961Z,16.20
2022-11-06T05:21:33.707Z,14.80
2022-11-06T05:24:06.464Z,14.80
2022-11-06T05:26:38.463Z,12.70
2022-11-06T05:29:11.795Z,14.00
2022-11-06T05:31:43.872Z,13.20
2022-11-06T05:34:15.851Z,14.10
2022-11-06T05:36:47.593Z,11.70
2022-11-06T05:39:19.349Z,14.40
2022-11-06T05:41:51.080Z,14.10
2022-11-06T05:44:23.116Z,14.40
2022-11-06T05:46:55.010Z,16.30
2022-11-06T05:49:27.407Z,20.30
2022-11-06T05:51:59.357Z,20.10
2022-11-06T05:54:31.351Z,21.20
2022-11-06T05:57:03.236Z,17.40
2022-11-06T05:59:35.141Z,16.50
2022-11-06T06:02:07.217Z,15.30
2022-11-06T06:04:39.372Z,17.00
2022-11-06T06:07:11.386Z,18.50
2022-11-06T06:09:43.590Z,16.00
2022-11-06T06:12:16.033Z,15.10
2022-11-06T06:14:50.497Z,16.40
2022-11-06T06:17:22.538Z,16.00
2022-11-06T06:19:54.584Z,17.10
2022-11-06T06:22:26.472Z,20.90
2022-11-06T06:24:58.722Z,20.10
2022-11-06T06:27:31.255Z,21.60
2022-11-06T06:30:03.418Z,23.70
2022-11-06T06:32:35.695Z,25.50
2022-11-06T06:35:08.817Z,23.50
2022-11-06T06:37:40.648Z,21.70
2022-11-06T06:40:14.107Z,23.20
2022-11-06T06:42:46.711Z,19.90
2022-11-06T06:45:18.901Z,16.50
2022-11-06T06:47:50.694Z,18.20
2022-11-06T06:50:22.682Z,20.90
2022-11-06T06:52:58.056Z,25.80
2022-11-06T06:55:30.513Z,21.40
2022-11-06T06:58:03.198Z,22.70
2022-11-06T07:00:35.337Z,19.90
2022-11-06T07:03:07.197Z,20.70
2022-11-06T07:05:39.808Z,22.90
2022-11-06T07:08:12.418Z,27.50
2022-11-06T07:10:44.830Z,23.40
2022-11-06T07:13:16.746Z,25.30
2022-11-06T07:15:48.588Z,21.60
2022-11-06T07:18:20.518Z,21.80
2022-11-06T07:20:52.726Z,20.60
2022-11-06T07:23:24.611Z,16.60
2022-11-06T07:25:56.704Z,18.50
2022-11-06T07:28:28.468Z,25.90
2022-11-06T07:31:02.659Z,31.00
2022-11-06T07:33:34.981Z,21.00
2022-11-06T07:36:09.632Z,13.70
2022-11-06T07:38:43.874Z,18.10
2022-11-06T07:41:17.009Z,15.80
2022-11-06T07:43:51.926Z,16.30
2022-11-06T07:46:23.730Z,19.60
2022-11-06T07:48:55.847Z,17.90
2022-11-06T07:51:27.816Z,16.70
2022-11-06T07:53:59.581Z,16.00
2022-11-06T07:56:31.665Z,15.70
2022-11-06T07:59:03.522Z,17.30
2022-11-06T08:01:35.501Z,15.50
2022-11-06T08:04:07.548Z,16.70
2022-11-06T08:06:39.692Z,14.30
2022-11-06T08:09:12.209Z,16.50
2022-11-06T08:11:44.308Z,18.90
2022-11-06T08:14:16.179Z,15.30
2022-11-06T08:16:48.091Z,18.20
2022-11-06T08:19:19.819Z,17.80
2022-11-06T08:21:52.131Z,29.20
2022-11-06T08:24:24.023Z,22.60
2022-11-06T08:26:55.929Z,22.00
2022-11-06T08:29:27.881Z,22.40
2022-11-06T08:31:59.742Z,19.60
2022-11-06T08:34:35.113Z,20.70
2022-11-06T08:37:06.936Z,19.70
2022-11-06T08:39:38.693Z,20.70
2022-11-06T08:42:10.615Z,20.80
2022-11-06T08:44:43.406Z,21.50
2022-11-06T08:47:15.300Z,16.50
2022-11-06T08:49:47.034Z,19.70
2022-11-06T08:52:19.068Z,17.60
2022-11-06T08:54:50.906Z,20.60
2022-11-06T08:57:22.825Z,29.80
2022-11-06T08:59:55.219Z,32.20
2022-11-06T09:02:27.255Z,19.00
2022-11-06T09:04:59.318Z,19.10
2022-11-06T09:07:31.040Z,18.40
2022-11-06T09:10:02.996Z,18.60
2022-11-06T09:12:34.807Z,18.40
2022-11-06T09:15:07.715Z,20.20
2022-11-06T09:17:45.165Z,18.90
2022-11-06T09:20:18.962Z,20.90
2022-11-06T09:22:51.865Z,19.30
2022-11-06T09:25:23.929Z,19.70
2022-11-06T09:27:59.401Z,19.60
2022-11-06T09:30:33.306Z,18.70
2022-11-06T09:33:12.262Z,16.70
2022-11-06T09:35:45.286Z,16.50
2022-11-06T09:38:17.357Z,14.10
2022-11-06T09:40:53.623Z,14.60
2022-11-06T09:46:43.657Z,13.40
2022-11-06T09:49:24.154Z,14.30
2022-11-06T09:52:03.501Z,12.90
2022-11-06T09:54:39.077Z,14.30
2022-11-06T09:57:17.118Z,13.40
2022-11-06T09:59:50.158Z,13.10
2022-11-06T10:02:32.043Z,14.90
2022-11-06T10:05:14.314Z,12.50
2022-11-06T10:07:47.410Z,13.60
2022-11-06T10:10:24.703Z,12.90
2022-11-06T10:13:13.657Z,11.80
2022-11-06T10:15:54.536Z,12.60
2022-11-06T10:18:41.661Z,14.10
2022-11-06T10:21:22.077Z,18.80
2022-11-06T10:23:59.585Z,20.60
2022-11-06T10:26:39.580Z,20.80
2022-11-06T10:29:27.834Z,17.00
2022-11-06T10:32:15.272Z,15.90
2022-11-06T10:34:50.796Z,13.60
2022-11-06T10:37:27.840Z,12.10
2022-11-06T10:40:00.938Z,13.30
2022-11-06T10:42:38.499Z,13.40
2022-11-06T10:45:16.107Z,13.60
2022-11-06T10:47:53.157Z,11.70
2022-11-06T10:50:33.147Z,13.30
2022-11-06T10:53:10.128Z,11.80
2022-11-06T10:56:10.880Z,13.30
2022-11-06T10:58:43.475Z,12.50
2022-11-06T11:01:17.282Z,11.90
2022-11-06T11:03:50.922Z,10.90
2022-11-06T11:06:22.738Z,13.40
2022-11-06T11:08:55.163Z,14.60
2022-11-06T11:11:29.280Z,12.50
2022-11-06T11:14:15.993Z,13.50
2022-11-06T11:16:48.915Z,14.60
2022-11-06T11:19:34.470Z,14.70
2022-11-06T11:22:18.571Z,13.10
2022-11-06T11:25:03.672Z,14.20
2022-11-06T11:27:45.089Z,13.70
2022-11-06T11:30:26.434Z,13.30
2022-11-06T11:32:59.754Z,15.90
2022-11-06T11:35:34.761Z,15.70
2022-11-06T11:38:15.607Z,17.40
2022-11-06T11:40:47.944Z,16.10
2022-11-06T11:43:25.444Z,14.40
2022-11-06T11:46:15.717Z,12.60
2022-11-06T11:48:49.548Z,12.30
2022-11-06T11:51:35.062Z,12.40
2022-11-06T11:54:23.597Z,11.50
2022-11-06T11:57:06.881Z,14.30
2022-11-06T11:59:45.567Z,14.40
2022-11-06T12:02:26.883Z,13.30
2022-11-06T12:05:01.892Z,13.60
2022-11-06T12:07:37.482Z,12.50
2022-11-06T12:10:28.015Z,14.60
2022-11-06T12:13:02.498Z,14.20
2022-11-06T12:15:42.513Z,16.50
2022-11-06T12:18:17.974Z,15.10
2022-11-06T12:20:58.716Z,14.00
2022-11-06T12:23:34.363Z,15.80
2022-11-06T12:26:10.550Z,16.30
2022-11-06T12:28:46.675Z,13.60
2022-11-06T12:31:21.909Z,13.50
2022-11-06T12:34:06.069Z,16.40
2022-11-06T12:36:45.267Z,15.50
2022-11-06T12:39:23.881Z,17.00
2022-11-06T12:41:58.223Z,16.40
2022-11-06T12:44:30.138Z,15.90
2022-11-06T12:47:07.275Z,13.90
2022-11-06T12:50:04.607Z,14.40
2022-11-06T12:52:52.758Z,14.40
2022-11-06T12:55:30.688Z,14.10
2022-11-06T12:58:19.128Z,14.10
2022-11-06T13:01:02.001Z,12.80
2022-11-06T13:03:50.240Z,14.90
2022-11-06T13:06:31.848Z,16.60
2022-11-06T13:09:10.755Z,17.90
2022-11-06T13:11:49.675Z,14.90
2022-11-06T13:14:29.790Z,15.90
2022-11-06T13:17:07.191Z,17.00
2022-11-06T13:19:48.642Z,16.00
2022-11-06T13:22:30.156Z,13.70
2022-11-06T13:25:12.242Z,12.30
2022-11-06T13:27:49.663Z,13.10
2022-11-06T13:30:24.437Z,13.90
2022-11-06T13:33:06.354Z,15.60
2022-11-06T13:35:41.028Z,19.40
2022-11-06T13:38:18.335Z,20.70
2022-11-06T13:40:54.789Z,16.70
2022-11-06T13:43:34.728Z,17.90
2022-11-06T13:46:16.167Z,17.60
2022-11-06T13:49:00.970Z,16.00
2022-11-06T13:51:43.813Z,18.70
2022-11-06T13:54:25.871Z,14.70
2022-11-06T13:57:23.579Z,15.70
2022-11-06T14:00:20.601Z,18.70
2022-11-06T14:03:37.164Z,20.70
2022-11-06T14:06:12.026Z,32.20
2022-11-06T14:08:47.351Z,25.90
2022-11-06T14:11:21.745Z,22.70
2022-11-06T14:14:04.675Z,23.40
2022-11-06T14:16:39.572Z,19.20
2022-11-06T14:19:15.757Z,18.10
2022-11-06T14:21:53.645Z,18.50
2022-11-06T14:24:42.698Z,17.40
2022-11-06T14:27:35.542Z,20.40
2022-11-06T14:30:19.066Z,22.30
2022-11-06T14:32:52.756Z,21.30
2022-11-06T14:35:53.719Z,22.60
2022-11-06T14:38:45.360Z,21.10
2022-11-06T14:41:58.617Z,20.30
2022-11-06T14:44:47.435Z,22.30
2022-11-06T14:50:26.061Z,23.80
2022-11-06T14:53:00.545Z,21.90
2022-11-06T14:55:36.120Z,20.30
2022-11-06T14:58:22.492Z,27.00
2022-11-06T15:00:57.780Z,27.60
2022-11-06T15:03:36.001Z,27.40
2022-11-06T15:09:07.235Z,26.50
2022-11-06T15:11:57.625Z,28.10
2022-11-06T15:14:57.353Z,27.50
2022-11-06T15:17:36.448Z,27.10
2022-11-06T15:20:29.185Z,31.60
2022-11-06T15:23:14.636Z,41.50
2022-11-06T15:25:57.933Z,48.60
2022-11-06T15:28:35.108Z,40.00
2022-11-06T15:31:09.557Z,52.10
2022-11-06T15:33:52.943Z,34.90
2022-11-06T15:36:29.620Z,38.10
2022-11-06T15:39:02.229Z,34.80
2022-11-06T15:41:34.117Z,28.60
2022-11-06T15:44:06.452Z,24.40
2022-11-06T15:46:38.388Z,28.30
2022-11-06T15:49:17.342Z,26.50
2022-11-06T15:51:55.603Z,26.80
2022-11-06T15:54:44.009Z,25.60
2022-11-06T15:57:21.435Z,28.30
2022-11-06T16:00:07.579Z,27.80
2022-11-06T16:02:50.859Z,27.20
2022-11-06T16:05:23.193Z,27.20
2022-11-06T16:07:55.415Z,29.40
2022-11-06T16:10:28.442Z,25.30
2022-11-06T16:13:01.016Z,27.80
2022-11-06T16:15:55.053Z,27.60
2022-11-06T16:18:30.827Z,22.30
2022-11-06T16:21:10.272Z,31.40
2022-11-06T16:23:45.638Z,36.30
2022-11-06T16:26:22.710Z,38.30
2022-11-06T16:28:57.249Z,36.90
2022-11-06T16:31:30.831Z,32.40
2022-11-06T16:34:04.940Z,34.10
2022-11-06T16:39:49.717Z,29.00
2022-11-06T16:42:28.447Z,30.50
2022-11-06T16:45:20.194Z,27.90
2022-11-06T16:48:34.666Z,23.80
2022-11-06T16:51:12.079Z,20.70
2022-11-06T16:53:56.146Z,21.40
2022-11-06T16:56:32.044Z,26.50
2022-11-06T16:59:08.831Z,22.20
2022-11-06T17:01:42.397Z,27.90
2022-11-06T17:04:23.895Z,24.60
2022-11-06T17:06:57.305Z,27.40
2022-11-06T17:09:34.051Z,25.30
2022-11-06T17:12:10.985Z,27.70
2022-11-06T17:14:47.493Z,28.30
2022-11-06T17:17:28.438Z,26.00
2022-11-06T17:20:01.182Z,32.60
2022-11-06T17:22:33.294Z,30.50
2022-11-06T17:25:06.108Z,26.80
2022-11-06T17:27:38.022Z,27.30
2022-11-06T17:30:16.030Z,28.50
2022-11-06T17:32:48.652Z,28.90
2022-11-06T17:35:20.876Z,27.30
2022-11-06T17:37:52.732Z,27.80
2022-11-06T17:40:24.898Z,27.70
2022-11-06T17:42:56.814Z,26.80
2022-11-06T17:45:29.228Z,26.50
2022-11-06T17:48:01.341Z,24.40
2022-11-06T17:50:55.131Z,26.60
2022-11-06T17:53:27.892Z,24.40
2022-11-06T17:56:03.190Z,28.20
2022-11-06T17:58:35.772Z,32.50
2022-11-06T18:01:10.379Z,31.50
2022-11-06T18:03:45.616Z,33.00
2022-11-06T18:06:18.810Z,34.20
2022-11-06T18:08:50.845Z,30.70
2022-11-06T18:11:22.729Z,33.20
2022-11-06T18:13:56.483Z,34.40
2022-11-06T18:16:32.408Z,42.10
2022-11-06T18:19:06.770Z,47.00
2022-11-06T18:21:39.442Z,47.50
2022-11-06T18:24:13.722Z,38.60
2022-11-06T18:26:46.097Z,35.20
2022-11-06T18:29:18.569Z,30.60
2022-11-06T18:31:50.466Z,32.00
2022-11-06T18:34:22.700Z,29.00
2022-11-06T18:36:54.685Z,31.60
2022-11-06T18:39:26.535Z,31.40
2022-11-06T18:42:00.328Z,32.40
2022-11-06T18:44:35.138Z,28.90
2022-11-06T18:47:07.159Z,28.20
2022-11-06T18:49:39.114Z,27.90
2022-11-06T18:52:11.305Z,28.10
2022-11-06T18:54:43.467Z,29.60
2022-11-06T18:57:16.060Z,27.20
2022-11-06T18:59:48.285Z,28.20
2022-11-06T19:02:20.338Z,28.10
2022-11-06T19:04:52.832Z,30.00
2022-11-06T19:07:24.974Z,29.60
2022-11-06T19:09:56.835Z,27.90
2022-11-06T19:12:29.047Z,24.20
2022-11-06T19:15:01.571Z,27.30
2022-11-06T19:17:33.818Z,27.80
2022-11-06T19:20:10.826Z,29.20
2022-11-06T19:22:49.632Z,33.00
2022-11-06T19:25:22.321Z,30.40
2022-11-06T19:27:57.865Z,29.20
2022-11-06T19:30:30.339Z,30.90
2022-11-06T19:33:03.949Z,31.00
2022-11-06T19:35:36.840Z,33.30
2022-11-06T19:38:09.036Z,32.50
2022-11-06T19:40:41.215Z,32.60
2022-11-06T19:43:13.516Z,29.20
2022-11-06T19:45:47.544Z,31.10
2022-11-06T19:48:19.753Z,27.00
2022-11-06T19:51:00.485Z,30.50
2022-11-06T19:53:33.033Z,32.80
2022-11-06T19:56:09.518Z,30.50
2022-11-06T19:58:41.588Z,31.30
2022-11-06T20:01:15.015Z,31.20
2022-11-06T20:03:47.799Z,27.20
2022-11-06T20:06:19.850Z,31.50
2022-11-06T20:08:52.514Z,31.40
2022-11-06T20:11:26.325Z,29.80
2022-11-06T20:13:58.321Z,27.50
2022-11-06T20:16:30.551Z,26.20
2022-11-06T20:19:02.469Z,28.30
2022-11-06T20:21:34.705Z,25.40
2022-11-06T20:24:09.154Z,33.60
2022-11-06T20:26:41.565Z,27.60
2022-11-06T20:29:13.561Z,24.90
2022-11-06T20:31:45.780Z,26.50
2022-11-06T20:34:19.570Z,27.80
2022-11-06T20:36:51.898Z,26.10
2022-11-06T20:39:24.251Z,25.90
2022-11-06T20:41:56.484Z,25.60
2022-11-06T20:44:28.539Z,26.80
2022-11-06T20:47:00.654Z,26.90
2022-11-06T20:49:33.246Z,29.40
2022-11-06T20:52:14.422Z,24.50
2022-11-06T20:54:49.490Z,26.30
2022-11-06T20:57:22.063Z,29.00
2022-11-06T20:59:54.462Z,28.50
2022-11-06T21:02:26.613Z,28.90
2022-11-06T21:04:58.956Z,28.90
2022-11-06T21:07:33.351Z,28.80
2022-11-06T21:10:06.445Z,28.30
2022-11-06T21:12:39.780Z,31.40
2022-11-06T21:15:13.113Z,32.70
2022-11-06T21:17:45.666Z,28.00
2022-11-06T21:20:22.735Z,31.00
2022-11-06T21:22:55.272Z,26.40
2022-11-06T21:25:27.439Z,29.10
2022-11-06T21:27:59.550Z,30.10
2022-11-06T21:30:33.026Z,32.20
2022-11-06T21:33:05.470Z,27.80
2022-11-06T21:35:37.531Z,30.20
2022-11-06T21:38:09.908Z,30.80
2022-11-06T21:40:42.315Z,29.20
2022-11-06T21:43:14.901Z,32.70
2022-11-06T21:45:47.405Z,27.50
2022-11-06T21:48:32.776Z,33.90
2022-11-06T21:51:13.604Z,29.60
2022-11-06T21:54:03.811Z,31.50
2022-11-06T21:56:36.800Z,32.60
2022-11-06T21:59:11.618Z,33.20
2022-11-06T22:01:44.192Z,34.60
2022-11-06T22:04:16.210Z,30.90
2022-11-06T22:06:48.082Z,33.50
2022-11-06T22:09:25.226Z,30.80
2022-11-06T22:11:57.940Z,36.70
2022-11-06T22:14:29.955Z,32.00
2022-11-06T22:17:01.789Z,30.50
2022-11-06T22:19:33.631Z,31.30
2022-11-06T22:22:05.793Z,33.00
2022-11-06T22:25:19.607Z,35.20
2022-11-06T22:28:47.158Z,28.90
2022-11-06T22:31:19.228Z,30.00
2022-11-06T22:33:53.877Z,29.10
2022-11-06T22:36:26.584Z,29.90
2022-11-06T22:39:00.363Z,30.50
2022-11-06T22:41:32.290Z,26.70
2022-11-06T22:44:05.461Z,29.20
2022-11-06T22:46:38.007Z,28.30
2022-11-06T22:49:11.236Z,27.20
2022-11-06T22:51:43.364Z,27.50
2022-11-06T22:54:15.270Z,25.70
2022-11-06T22:56:47.545Z,24.00
2022-11-06T22:59:20.896Z,23.60
2022-11-06T23:01:53.470Z,25.60
2022-11-06T23:04:25.440Z,26.70
2022-11-06T23:06:57.222Z,25.30
2022-11-06T23:09:29.081Z,25.00
2022-11-06T23:12:01.458Z,24.80
2022-11-06T23:14:33.261Z,29.60
2022-11-06T23:17:05.060Z,26.10
2022-11-06T23:19:37.017Z,27.10
2022-11-06T23:22:26.576Z,26.30
2022-11-06T23:24:58.711Z,26.80
2022-11-06T23:27:30.720Z,27.10
2022-11-06T23:30:03.388Z,28.40
2022-11-06T23:32:37.466Z,26.80
2022-11-06T23:35:13.806Z,28.20
2022-11-06T23:37:47.257Z,27.20
2022-11-06T23:40:19.128Z,29.00
2022-11-06T23:42:54.828Z,26.20
2022-11-06T23:45:44.544Z,28.80
2022-11-06T23:48:18.166Z,28.60
2022-11-06T23:50:50.033Z,26.70
2022-11-06T23:53:22.151Z,26.80
2022-11-06T23:55:54.035Z,27.10
2022-11-06T23:58:26.120Z,26.80
